createdAt,value
2023-02-28T00:03:30.827Z,2.20
2023-02-28T00:08:34.450Z,2.17
2023-02-28T00:13:39.956Z,2.10
2023-02-28T00:18:45.428Z,2.00
2023-02-28T00:23:49.477Z,2.13
2023-02-28T00:28:54.311Z,2.08
2023-02-28T00:33:59.577Z,2.58
2023-02-28T00:39:03.180Z,2.55
2023-02-28T00:44:07.005Z,2.15
2023-02-28T00:49:12.282Z,2.30
2023-02-28T00:54:15.907Z,2.22
2023-02-28T00:59:19.988Z,1.90
2023-02-28T01:04:25.314Z,2.25
2023-02-28T01:09:28.948Z,2.20
2023-02-28T01:14:32.620Z,2.47
2023-02-28T01:19:37.999Z,2.50
2023-02-28T01:24:41.654Z,2.05
2023-02-28T01:29:45.305Z,2.22
2023-02-28T01:34:50.564Z,2.70
2023-02-28T01:39:54.181Z,2.80
2023-02-28T01:45:04.342Z,2.55
2023-02-28T01:50:14.497Z,2.80
2023-02-28T01:55:20.459Z,2.33
2023-02-28T02:00:26.880Z,4.13
2023-02-28T02:10:38.117Z,2.65
2023-02-28T02:15:50.480Z,2.50
2023-02-28T02:21:24.281Z,2.50
2023-02-28T02:26:51.094Z,2.47
2023-02-28T02:37:29.330Z,2.85
2023-02-28T02:42:41.604Z,2.80
2023-02-28T02:47:47.050Z,2.40
2023-02-28T02:52:57.408Z,2.80
2023-02-28T02:58:03.689Z,3.00
2023-02-28T03:08:12.940Z,2.97
2023-02-28T03:13:39.026Z,3.00
2023-02-28T03:18:52.256Z,2.93
2023-02-28T03:24:05.483Z,3.40
2023-02-28T03:29:21.930Z,2.20
2023-02-28T03:34:31.309Z,2.15
2023-02-28T03:39:41.603Z,2.10
2023-02-28T03:44:49.556Z,1.58
2023-02-28T03:49:59.477Z,2.05
2023-02-28T03:55:08.880Z,1.80
2023-02-28T04:00:18.374Z,1.75
2023-02-28T04:05:22.714Z,2.28
2023-02-28T04:10:28.466Z,2.28
2023-02-28T04:15:32.214Z,2.10
2023-02-28T04:20:35.877Z,2.42
2023-02-28T04:25:41.160Z,2.30
2023-02-28T04:30:44.856Z,2.70
2023-02-28T04:35:48.554Z,2.75
2023-02-28T04:40:53.897Z,2.60
2023-02-28T04:45:58.057Z,2.92
2023-02-28T04:51:03.516Z,3.10
2023-02-28T04:56:11.079Z,2.47
2023-02-28T05:01:24.909Z,2.85
2023-02-28T05:06:30.239Z,2.53
2023-02-28T05:11:36.296Z,2.80
2023-02-28T05:16:40.150Z,3.00
2023-02-28T05:21:51.328Z,2.65
2023-02-28T05:26:56.886Z,2.10
2023-02-28T05:32:00.586Z,2.40
2023-02-28T05:37:04.279Z,2.50
2023-02-28T05:42:10.639Z,2.05
2023-02-28T05:47:14.254Z,1.88
2023-02-28T05:52:17.934Z,1.92
2023-02-28T05:57:24.836Z,1.95
2023-02-28T06:02:28.581Z,2.10
2023-02-28T06:07:32.224Z,1.95
2023-02-28T06:12:38.122Z,1.73
2023-02-28T06:17:42.426Z,1.67
2023-02-28T06:22:46.056Z,2.10
2023-02-28T06:27:51.343Z,2.25
2023-02-28T06:32:55.307Z,2.40
2023-02-28T06:37:59.960Z,2.28
2023-02-28T06:43:05.410Z,2.20
2023-02-28T06:48:09.039Z,2.33
2023-02-28T06:53:12.696Z,2.25
2023-02-28T06:58:18.930Z,2.00
2023-02-28T07:03:22.590Z,2.00
2023-02-28T07:08:26.706Z,1.98
2023-02-28T07:13:33.178Z,1.65
2023-02-28T07:23:40.647Z,1.98
2023-02-28T07:28:47.045Z,2.10
2023-02-28T07:33:50.719Z,1.88
2023-02-28T07:38:54.472Z,1.80
2023-02-28T07:43:59.776Z,1.80
2023-02-28T07:49:03.819Z,1.90
2023-02-28T07:54:07.674Z,2.00
2023-02-28T07:59:13.562Z,1.85
2023-02-28T08:04:17.225Z,1.70
2023-02-28T08:09:21.122Z,1.83
2023-02-28T08:14:26.434Z,1.75
2023-02-28T08:19:30.107Z,1.50
2023-02-28T08:24:33.739Z,1.77
2023-02-28T08:29:39.711Z,1.42
2023-02-28T08:34:43.313Z,1.92
2023-02-28T08:39:46.971Z,1.55
2023-02-28T08:44:53.231Z,1.63
2023-02-28T08:49:56.828Z,1.48
2023-02-28T08:55:00.757Z,1.70
2023-02-28T09:00:07.007Z,1.83
2023-02-28T09:05:11.161Z,1.63
2023-02-28T09:10:14.806Z,1.80
2023-02-28T09:15:21.047Z,1.73
2023-02-28T09:20:24.729Z,1.40
2023-02-28T09:25:28.445Z,1.70
2023-02-28T09:30:33.847Z,2.30
2023-02-28T09:35:37.505Z,1.50
2023-02-28T09:40:52.584Z,1.75
2023-02-28T09:46:04.478Z,1.80
2023-02-28T09:51:17.466Z,1.80
2023-02-28T09:56:26.089Z,2.20
2023-02-28T10:01:40.933Z,2.03
2023-02-28T10:06:48.726Z,2.20
2023-02-28T10:11:56.107Z,2.80
2023-02-28T10:17:06.253Z,2.30
2023-02-28T10:22:15.600Z,1.80
2023-02-28T10:27:21.139Z,2.25
2023-02-28T10:32:28.699Z,2.33
2023-02-28T10:37:32.302Z,2.15
2023-02-28T10:42:35.991Z,2.00
2023-02-28T10:47:51.520Z,2.30
2023-02-28T10:52:56.093Z,2.65
2023-02-28T10:57:59.774Z,3.22
2023-02-28T11:03:31.334Z,2.78
2023-02-28T11:08:35.584Z,2.55
2023-02-28T11:13:39.347Z,2.65
2023-02-28T11:18:49.820Z,2.83
2023-02-28T11:23:58.184Z,3.17
2023-02-28T11:29:12.054Z,2.60
2023-02-28T11:34:29.972Z,2.95
2023-02-28T11:39:34.855Z,2.60
2023-02-28T11:44:50.612Z,3.55
2023-02-28T11:50:13.301Z,2.53
2023-02-28T11:55:21.481Z,2.50
2023-02-28T12:00:40.760Z,2.95
2023-02-28T12:05:48.582Z,2.45
2023-02-28T12:11:06.712Z,2.40
2023-02-28T12:16:39.486Z,1.70
2023-02-28T12:22:13.884Z,2.30
2023-02-28T12:27:23.435Z,2.45
2023-02-28T12:32:34.650Z,1.90
2023-02-28T12:37:43.190Z,2.40
2023-02-28T12:42:51.122Z,2.92
2023-02-28T12:47:59.168Z,2.75
2023-02-28T12:53:08.773Z,1.90
2023-02-28T12:58:20.267Z,2.47
2023-02-28T13:03:46.805Z,2.15
2023-02-28T13:09:06.824Z,2.22
2023-02-28T13:14:23.904Z,2.53
2023-02-28T13:19:30.719Z,2.60
2023-02-28T13:24:52.007Z,2.90
2023-02-28T13:29:55.892Z,3.00
2023-02-28T13:35:44.591Z,2.40
2023-02-28T13:40:49.959Z,2.70
2023-02-28T13:46:12.201Z,3.03
2023-02-28T13:51:41.715Z,3.55
2023-02-28T13:56:53.501Z,3.38
2023-02-28T14:02:19.113Z,4.32
2023-02-28T14:07:25.697Z,4.13
2023-02-28T14:13:02.486Z,4.00
2023-02-28T14:18:15.209Z,3.50
2023-02-28T14:23:33.121Z,2.50
2023-02-28T14:28:51.765Z,2.67
2023-02-28T14:34:15.719Z,2.25
2023-02-28T14:39:23.872Z,3.05
2023-02-28T14:44:29.869Z,3.28
2023-02-28T14:49:36.816Z,3.85
2023-02-28T14:54:41.198Z,2.65
2023-02-28T14:59:46.519Z,2.30
2023-02-28T15:04:58.422Z,1.87
2023-02-28T15:10:16.089Z,2.17
2023-02-28T15:15:31.702Z,2.72
2023-02-28T15:20:45.960Z,1.17
2023-02-28T15:25:50.160Z,1.33
2023-02-28T15:30:58.862Z,1.58
2023-02-28T15:36:15.171Z,1.75
2023-02-28T15:41:27.967Z,1.95
2023-02-28T15:46:33.535Z,1.70
2023-02-28T15:51:39.670Z,2.97
2023-02-28T15:56:47.143Z,2.65
2023-02-28T16:02:13.703Z,2.38
2023-02-28T16:07:17.468Z,1.80
2023-02-28T16:12:22.610Z,1.40
2023-02-28T16:17:29.671Z,1.75
2023-02-28T16:22:33.283Z,0.60
2023-02-28T16:27:39.326Z,1.30
2023-02-28T16:32:44.664Z,1.35
2023-02-28T16:37:48.313Z,2.00
2023-02-28T16:42:54.754Z,1.80
2023-02-28T16:53:02.956Z,1.60
2023-02-28T16:58:06.840Z,1.45
2023-02-28T17:03:32.008Z,0.40
2023-02-28T17:08:36.596Z,0.50
2023-02-28T17:13:40.245Z,0.35
2023-02-28T17:18:45.549Z,0.43
2023-02-28T17:23:49.179Z,0.95
2023-02-28T17:28:55.509Z,0.60
2023-02-28T17:34:00.869Z,0.47
2023-02-28T17:39:05.416Z,0.80
2023-02-28T17:44:09.110Z,1.13
2023-02-28T17:49:14.867Z,1.48
2023-02-28T17:54:19.316Z,1.20
2023-02-28T17:59:22.995Z,1.17
2023-02-28T18:04:28.422Z,0.98
2023-02-28T18:09:32.047Z,1.77
2023-02-28T18:14:35.692Z,1.30
2023-02-28T18:19:41.152Z,1.27
2023-02-28T18:24:44.985Z,1.30
2023-02-28T18:29:48.646Z,1.63
2023-02-28T18:34:54.082Z,1.75
2023-02-28T18:39:58.146Z,1.40
2023-02-28T18:45:01.824Z,1.42
2023-02-28T18:50:07.621Z,1.10
2023-02-28T18:55:11.677Z,1.48
2023-02-28T19:00:17.640Z,1.23
2023-02-28T19:05:23.120Z,1.30
2023-02-28T19:10:26.778Z,1.23
2023-02-28T19:15:30.467Z,2.20
2023-02-28T19:20:35.806Z,1.77
2023-02-28T19:25:42.481Z,1.67
2023-02-28T19:30:48.433Z,1.48
2023-02-28T19:35:53.975Z,1.08
2023-02-28T19:41:04.556Z,1.47
2023-02-28T19:46:08.852Z,1.42
2023-02-28T19:51:15.534Z,1.90
2023-02-28T19:56:19.252Z,1.70
2023-02-28T20:01:23.001Z,1.60
2023-02-28T20:06:29.358Z,2.15
2023-02-28T20:11:33.179Z,1.60
2023-02-28T20:16:36.874Z,2.03
2023-02-28T20:21:42.156Z,1.70
2023-02-28T20:26:45.888Z,1.63
2023-02-28T20:31:49.674Z,2.60
2023-02-28T20:36:55.031Z,1.65
2023-02-28T20:41:58.651Z,1.97
2023-02-28T20:47:02.270Z,2.00
2023-02-28T20:52:07.633Z,1.88
2023-02-28T20:57:11.272Z,2.23
2023-02-28T21:02:17.610Z,1.17
2023-02-28T21:07:22.920Z,1.45
2023-02-28T21:12:26.640Z,1.67
2023-02-28T21:17:30.483Z,1.73
2023-02-28T21:22:36.733Z,1.92
2023-02-28T21:27:40.337Z,2.03
2023-02-28T21:32:43.947Z,1.55
2023-02-28T21:37:49.243Z,1.77
2023-02-28T21:42:53.041Z,1.60
2023-02-28T21:47:56.687Z,1.58
2023-02-28T21:53:02.229Z,2.38
2023-02-28T21:58:05.890Z,2.07
2023-02-28T22:03:09.816Z,1.88
2023-02-28T22:08:15.139Z,1.95
2023-02-28T22:13:18.805Z,1.90
2023-02-28T22:18:22.477Z,2.17
2023-02-28T22:23:27.952Z,2.03
2023-02-28T22:28:31.928Z,2.13
2023-02-28T22:33:35.558Z,1.90
2023-02-28T22:38:40.954Z,1.80
2023-02-28T22:43:44.766Z,2.20
2023-02-28T22:48:48.590Z,2.08
2023-02-28T22:53:55.657Z,2.20
2023-02-28T22:59:00.214Z,2.08
2023-02-28T23:04:04.661Z,1.80
2023-02-28T23:09:11.578Z,1.40
2023-02-28T23:14:17.343Z,1.00
2023-02-28T23:19:23.639Z,0.95
2023-02-28T23:24:30.743Z,0.88
2023-02-28T23:29:35.048Z,1.05
2023-02-28T23:34:38.691Z,0.80
2023-02-28T23:39:43.947Z,0.55
2023-02-28T23:44:47.556Z,0.50
2023-02-28T23:49:51.180Z,0.40
2023-02-28T23:54:56.571Z,0.40
